createdAt,value
2022-08-21T00:00:20.263Z,14.60
2022-08-21T00:02:50.546Z,14.78
2022-08-21T00:05:18.072Z,14.90
2022-08-21T00:07:44.669Z,14.75
2022-08-21T00:10:11.743Z,14.60
2022-08-21T00:12:38.611Z,14.52
2022-08-21T00:15:07.205Z,14.46
2022-08-21T00:17:35.793Z,14.44
2022-08-21T00:20:05.004Z,14.41
2022-08-21T00:22:31.592Z,14.39
2022-08-21T00:24:58.987Z,14.41
2022-08-21T00:27:25.572Z,14.36
2022-08-21T00:29:52.756Z,14.30
2022-08-21T00:32:23.944Z,14.28
2022-08-21T00:34:51.278Z,14.27
2022-08-21T00:37:17.881Z,14.24
2022-08-21T00:39:44.605Z,14.26
2022-08-21T00:42:15.744Z,14.28
2022-08-21T00:44:47.302Z,14.26
2022-08-21T00:47:14.423Z,14.27
2022-08-21T00:49:41.438Z,14.28
2022-08-21T00:52:11.397Z,14.17
2022-08-21T00:54:39.629Z,14.01
2022-08-21T00:57:20.954Z,13.91
2022-08-21T00:59:51.110Z,13.97
2022-08-21T01:02:18.919Z,13.93
2022-08-21T01:04:45.905Z,13.93
2022-08-21T01:07:13.562Z,13.95
2022-08-21T01:09:40.427Z,13.96
2022-08-21T01:12:07.570Z,13.95
2022-08-21T01:14:34.759Z,13.81
2022-08-21T01:17:02.161Z,13.69
2022-08-21T01:19:28.876Z,13.65
2022-08-21T01:21:55.814Z,13.76
2022-08-21T01:24:22.823Z,13.61
2022-08-21T01:26:50.441Z,13.55
2022-08-21T01:29:45.015Z,13.49
2022-08-21T01:32:17.493Z,13.54
2022-08-21T01:34:45.284Z,13.57
2022-08-21T01:37:12.707Z,13.56
2022-08-21T01:39:39.538Z,13.49
2022-08-21T01:42:06.610Z,13.41
2022-08-21T01:44:35.042Z,13.38
2022-08-21T01:47:03.704Z,13.32
2022-08-21T01:49:30.319Z,13.30
2022-08-21T01:51:56.998Z,13.29
2022-08-21T01:54:23.548Z,13.27
2022-08-21T01:56:52.684Z,13.31
2022-08-21T01:59:19.574Z,13.35
2022-08-21T02:01:46.179Z,13.39
2022-08-21T02:04:12.785Z,13.41
2022-08-21T02:06:40.011Z,13.45
2022-08-21T02:09:08.609Z,13.40
2022-08-21T02:11:36.781Z,13.44
2022-08-21T02:14:03.527Z,13.51
2022-08-21T02:16:30.167Z,13.44
2022-08-21T02:19:00.842Z,13.33
2022-08-21T02:21:27.535Z,13.25
2022-08-21T02:23:54.096Z,13.12
2022-08-21T02:26:20.630Z,13.05
2022-08-21T02:28:47.575Z,13.00
2022-08-21T02:31:14.950Z,13.02
2022-08-21T02:33:41.561Z,13.01
2022-08-21T02:36:09.388Z,13.04
2022-08-21T02:38:40.533Z,13.14
2022-08-21T02:41:10.113Z,13.20
2022-08-21T02:43:36.872Z,13.19
2022-08-21T02:46:05.943Z,13.23
2022-08-21T02:48:33.868Z,13.20
2022-08-21T02:51:10.819Z,13.22
2022-08-21T02:53:38.215Z,13.11
2022-08-21T02:56:08.361Z,13.14
2022-08-21T02:58:42.418Z,13.09
2022-08-21T03:01:10.448Z,12.98
2022-08-21T03:03:39.246Z,12.91
2022-08-21T03:06:09.100Z,12.95
2022-08-21T03:08:36.704Z,13.15
2022-08-21T03:11:03.992Z,13.23
2022-08-21T03:13:33.160Z,13.25
2022-08-21T03:15:59.854Z,13.29
2022-08-21T03:18:26.975Z,13.38
2022-08-21T03:20:54.029Z,13.35
2022-08-21T03:23:20.709Z,13.28
2022-08-21T03:25:48.923Z,13.07
2022-08-21T03:28:18.473Z,12.82
2022-08-21T03:30:47.409Z,12.83
2022-08-21T03:33:15.561Z,12.62
2022-08-21T03:35:57.767Z,12.55
2022-08-21T03:38:26.736Z,12.49
2022-08-21T03:40:53.657Z,12.47
2022-08-21T03:43:20.341Z,12.45
2022-08-21T03:45:47.010Z,12.50
2022-08-21T03:48:13.964Z,12.48
2022-08-21T03:50:42.553Z,12.47
2022-08-21T03:53:17.138Z,12.44
2022-08-21T03:55:46.640Z,12.47
2022-08-21T03:58:16.131Z,12.46
2022-08-21T04:00:48.365Z,12.39
2022-08-21T04:03:15.422Z,12.41
2022-08-21T04:05:42.597Z,12.37
2022-08-21T04:08:09.602Z,12.36
2022-08-21T04:10:38.906Z,12.36
2022-08-21T04:13:06.715Z,12.32
2022-08-21T04:15:33.535Z,12.32
2022-08-21T04:18:00.384Z,12.24
2022-08-21T04:20:27.651Z,12.15
2022-08-21T04:22:54.875Z,12.11
2022-08-21T04:25:23.640Z,12.08
2022-08-21T04:27:50.544Z,12.03
2022-08-21T04:30:17.718Z,11.99
2022-08-21T04:32:47.739Z,12.03
2022-08-21T04:35:17.501Z,12.07
2022-08-21T04:37:44.098Z,12.10
2022-08-21T04:40:13.171Z,12.12
2022-08-21T04:42:51.068Z,12.15
2022-08-21T04:45:31.925Z,12.16
2022-08-21T04:48:00.465Z,12.22
2022-08-21T04:50:46.807Z,12.20
2022-08-21T04:53:17.634Z,12.28
2022-08-21T04:55:44.437Z,12.40
2022-08-21T04:58:12.669Z,12.51
2022-08-21T05:00:39.364Z,12.56
2022-08-21T05:03:07.643Z,12.66
2022-08-21T05:05:35.433Z,12.81
2022-08-21T05:08:03.608Z,12.96
2022-08-21T05:10:32.550Z,13.13
2022-08-21T05:12:59.534Z,13.25
2022-08-21T05:15:26.271Z,13.36
2022-08-21T05:18:00.748Z,13.41
2022-08-21T05:20:28.967Z,13.48
2022-08-21T05:22:55.837Z,13.49
2022-08-21T05:25:23.767Z,13.59
2022-08-21T05:27:52.397Z,13.69
2022-08-21T05:30:20.863Z,13.68
2022-08-21T05:32:48.594Z,13.67
2022-08-21T05:35:15.190Z,13.58
2022-08-21T05:37:41.727Z,13.45
2022-08-21T05:40:22.543Z,13.34
2022-08-21T05:42:55.381Z,13.26
2022-08-21T05:45:42.782Z,13.26
2022-08-21T05:48:11.872Z,13.27
2022-08-21T05:50:39.630Z,13.29
2022-08-21T05:53:07.653Z,13.35
2022-08-21T05:55:34.571Z,13.38
2022-08-21T05:58:01.637Z,13.42
2022-08-21T06:00:28.370Z,13.44
2022-08-21T06:02:55.032Z,13.48
2022-08-21T06:05:36.787Z,13.51
2022-08-21T06:08:04.866Z,13.74
2022-08-21T06:10:32.242Z,14.00
2022-08-21T06:12:59.065Z,14.18
2022-08-21T06:15:26.079Z,14.26
2022-08-21T06:17:53.665Z,14.24
2022-08-21T06:20:20.337Z,14.19
2022-08-21T06:22:46.980Z,14.21
2022-08-21T06:25:13.545Z,14.27
2022-08-21T06:27:40.493Z,14.33
2022-08-21T06:30:08.379Z,14.39
2022-08-21T06:32:35.613Z,14.45
2022-08-21T06:35:02.241Z,14.50
2022-08-21T06:37:29.029Z,14.56
2022-08-21T06:39:55.593Z,14.67
2022-08-21T06:42:22.389Z,14.77
2022-08-21T06:44:55.717Z,14.91
2022-08-21T06:47:22.356Z,15.12
2022-08-21T06:49:48.917Z,15.29
2022-08-21T06:52:16.479Z,15.34
2022-08-21T06:54:43.063Z,15.43
2022-08-21T06:57:09.687Z,15.56
2022-08-21T06:59:36.418Z,15.68
2022-08-21T07:02:03.172Z,15.78
2022-08-21T07:04:29.799Z,15.84
2022-08-21T07:06:56.426Z,15.91
2022-08-21T07:09:24.768Z,16.02
2022-08-21T07:11:53.503Z,16.14
2022-08-21T07:14:20.752Z,16.24
2022-08-21T07:16:48.550Z,16.35
2022-08-21T07:19:15.161Z,16.44
2022-08-21T07:21:41.772Z,16.51
2022-08-21T07:24:08.395Z,16.63
2022-08-21T07:26:34.946Z,16.74
2022-08-21T07:29:01.582Z,16.87
2022-08-21T07:31:28.883Z,16.98
2022-08-21T07:33:55.871Z,17.12
2022-08-21T07:36:22.519Z,17.25
2022-08-21T07:38:49.370Z,17.35
2022-08-21T07:41:25.869Z,17.50
2022-08-21T07:43:52.906Z,17.59
2022-08-21T07:46:20.509Z,17.60
2022-08-21T07:48:47.292Z,17.71
2022-08-21T07:51:15.644Z,17.87
2022-08-21T07:53:42.660Z,17.99
2022-08-21T07:56:11.891Z,18.05
2022-08-21T07:58:38.774Z,18.09
2022-08-21T08:01:07.434Z,18.23
2022-08-21T08:03:34.454Z,18.30
2022-08-21T08:06:01.130Z,18.34
2022-08-21T08:08:29.066Z,18.42
2022-08-21T08:10:57.289Z,18.48
2022-08-21T08:13:24.169Z,18.64
2022-08-21T08:15:50.881Z,18.79
2022-08-21T08:18:17.524Z,19.00
2022-08-21T08:20:44.127Z,19.13
2022-08-21T08:23:12.660Z,19.35
2022-08-21T08:25:39.634Z,19.36
2022-08-21T08:28:17.459Z,19.60
2022-08-21T08:30:46.543Z,19.97
2022-08-21T08:33:14.253Z,20.29
2022-08-21T08:35:42.328Z,20.11
2022-08-21T08:38:09.282Z,19.95
2022-08-21T08:40:45.012Z,20.17
2022-08-21T08:43:14.377Z,20.40
2022-08-21T08:45:44.033Z,20.68
2022-08-21T08:48:14.665Z,20.79
2022-08-21T08:50:52.682Z,20.94
2022-08-21T08:53:24.293Z,21.05
2022-08-21T08:55:53.004Z,21.11
2022-08-21T08:58:25.555Z,21.09
2022-08-21T09:00:53.143Z,21.18
2022-08-21T09:03:19.915Z,21.36
2022-08-21T09:05:49.562Z,21.63
2022-08-21T09:08:22.134Z,21.89
2022-08-21T09:11:19.639Z,21.53
2022-08-21T09:13:57.165Z,21.68
2022-08-21T09:16:44.889Z,21.59
2022-08-21T09:19:24.753Z,21.64
2022-08-21T09:22:24.105Z,21.68
2022-08-21T09:25:13.836Z,22.00
2022-08-21T09:27:40.779Z,22.23
2022-08-21T09:30:08.297Z,21.90
2022-08-21T09:32:37.682Z,21.48
2022-08-21T09:35:21.127Z,21.56
2022-08-21T09:37:54.034Z,21.79
2022-08-21T09:40:36.738Z,22.06
2022-08-21T09:43:12.534Z,22.02
2022-08-21T09:45:41.172Z,22.10
2022-08-21T09:48:10.434Z,22.34
2022-08-21T09:50:37.551Z,22.34
2022-08-21T09:53:04.215Z,21.80
2022-08-21T09:55:58.187Z,21.92
2022-08-21T09:58:35.605Z,22.00
2022-08-21T10:01:05.813Z,21.79
2022-08-21T10:03:32.908Z,21.96
2022-08-21T10:06:07.278Z,21.86
2022-08-21T10:08:38.445Z,21.94
2022-08-21T10:11:16.611Z,22.25
2022-08-21T10:14:05.387Z,22.20
2022-08-21T10:16:48.596Z,22.42
2022-08-21T10:19:15.141Z,22.45
2022-08-21T10:21:57.083Z,22.47
2022-08-21T10:25:04.896Z,22.52
2022-08-21T10:27:53.078Z,22.61
2022-08-21T10:30:31.284Z,22.58
2022-08-21T10:33:04.070Z,22.44
2022-08-21T10:35:35.076Z,22.31
2022-08-21T10:38:09.163Z,22.41
2022-08-21T10:40:44.092Z,22.56
2022-08-21T10:43:32.026Z,22.70
2022-08-21T10:49:34.666Z,22.79
2022-08-21T10:52:37.276Z,23.02
2022-08-21T10:55:10.409Z,23.01
2022-08-21T10:57:53.944Z,22.89
2022-08-21T11:00:37.841Z,22.79
2022-08-21T11:03:28.236Z,22.61
2022-08-21T11:06:12.689Z,22.44
2022-08-21T11:08:56.477Z,22.43
2022-08-21T11:11:45.106Z,22.55
2022-08-21T11:14:49.966Z,22.63
2022-08-21T11:17:25.500Z,22.67
2022-08-21T11:20:01.733Z,22.77
2022-08-21T11:22:45.604Z,22.74
2022-08-21T11:25:27.194Z,22.97
2022-08-21T11:28:21.241Z,23.18
2022-08-21T11:31:17.687Z,23.28
2022-08-21T11:34:02.193Z,23.29
2022-08-21T11:36:34.637Z,23.32
2022-08-21T11:39:23.810Z,23.47
2022-08-21T11:42:27.016Z,23.53
2022-08-21T11:45:05.417Z,23.45
2022-08-21T11:48:01.968Z,23.51
2022-08-21T11:50:35.396Z,23.51
2022-08-21T11:53:53.801Z,23.43
2022-08-21T11:56:35.699Z,23.07
2022-08-21T11:59:24.866Z,22.72
2022-08-21T12:01:58.546Z,22.65
2022-08-21T12:04:55.482Z,22.79
2022-08-21T12:07:41.367Z,22.77
2022-08-21T12:10:23.584Z,22.99
2022-08-21T12:12:57.790Z,23.11
2022-08-21T12:15:35.232Z,23.31
2022-08-21T12:21:21.603Z,23.02
2022-08-21T12:23:51.500Z,23.13
2022-08-21T12:26:29.093Z,23.41
2022-08-21T12:29:31.322Z,23.45
2022-08-21T12:32:31.058Z,23.70
2022-08-21T12:35:25.030Z,23.72
2022-08-21T12:38:38.411Z,23.89
2022-08-21T12:41:14.081Z,23.69
2022-08-21T12:43:53.449Z,23.65
2022-08-21T12:46:41.195Z,23.70
2022-08-21T12:49:33.309Z,23.64
2022-08-21T12:52:38.440Z,23.64
2022-08-21T12:55:06.297Z,23.56
2022-08-21T12:57:36.817Z,23.36
2022-08-21T13:00:12.942Z,23.58
2022-08-21T13:02:44.126Z,23.69
2022-08-21T13:05:15.741Z,23.62
2022-08-21T13:07:47.661Z,23.45
2022-08-21T13:10:27.564Z,23.78
2022-08-21T13:13:02.463Z,23.78
2022-08-21T13:15:41.318Z,23.84
2022-08-21T13:18:26.241Z,23.65
2022-08-21T13:21:04.045Z,23.70
2022-08-21T13:23:31.457Z,23.72
2022-08-21T13:25:58.680Z,23.79
2022-08-21T13:28:25.425Z,23.81
2022-08-21T13:30:54.651Z,23.85
2022-08-21T13:33:24.230Z,23.75
2022-08-21T13:36:13.009Z,23.70
2022-08-21T13:38:42.467Z,23.75
2022-08-21T13:41:17.256Z,23.68
2022-08-21T13:43:51.195Z,23.80
2022-08-21T13:46:19.093Z,23.61
2022-08-21T13:48:45.800Z,23.66
2022-08-21T13:51:12.913Z,23.73
2022-08-21T13:53:43.668Z,23.75
2022-08-21T13:56:10.269Z,23.96
2022-08-21T13:58:45.460Z,23.94
2022-08-21T14:01:22.465Z,23.87
2022-08-21T14:03:51.166Z,23.94
2022-08-21T14:06:24.233Z,24.00
2022-08-21T14:09:09.253Z,24.18
2022-08-21T14:11:36.655Z,24.14
2022-08-21T14:14:05.766Z,24.09
2022-08-21T14:16:55.347Z,24.10
2022-08-21T14:19:28.365Z,24.08
2022-08-21T14:21:55.640Z,24.14
2022-08-21T14:24:28.706Z,24.29
2022-08-21T14:27:02.586Z,24.43
2022-08-21T14:29:32.680Z,24.29
2022-08-21T14:32:24.497Z,24.52
2022-08-21T14:34:52.240Z,24.60
2022-08-21T14:37:19.969Z,24.60
2022-08-21T14:39:46.639Z,24.43
2022-08-21T14:42:13.981Z,24.91
2022-08-21T14:44:40.654Z,25.03
2022-08-21T14:47:07.344Z,25.02
2022-08-21T14:49:34.000Z,25.06
2022-08-21T14:52:00.672Z,24.85
2022-08-21T14:54:31.696Z,24.77
2022-08-21T14:57:09.608Z,24.92
2022-08-21T14:59:36.947Z,25.08
2022-08-21T15:02:05.304Z,25.17
2022-08-21T15:04:32.754Z,25.03
2022-08-21T15:06:59.502Z,24.89
2022-08-21T15:09:26.051Z,24.93
2022-08-21T15:11:54.557Z,24.66
2022-08-21T15:14:23.053Z,24.74
2022-08-21T15:16:50.164Z,24.74
2022-08-21T15:19:16.944Z,24.77
2022-08-21T15:21:43.805Z,24.87
2022-08-21T15:24:10.400Z,24.91
2022-08-21T15:26:37.562Z,24.91
2022-08-21T15:29:06.681Z,24.61
2022-08-21T15:31:33.771Z,24.72
2022-08-21T15:34:00.339Z,24.74
2022-08-21T15:36:27.051Z,24.90
2022-08-21T15:38:53.628Z,25.02
2022-08-21T15:41:20.239Z,25.21
2022-08-21T15:43:49.287Z,25.32
2022-08-21T15:46:17.874Z,25.27
2022-08-21T15:48:44.897Z,25.32
2022-08-21T15:51:12.073Z,25.39
2022-08-21T15:53:40.925Z,25.43
2022-08-21T15:56:14.217Z,25.20
2022-08-21T15:58:40.892Z,25.19
2022-08-21T16:01:07.568Z,25.24
2022-08-21T16:03:34.552Z,25.19
2022-08-21T16:06:01.191Z,25.17
2022-08-21T16:08:27.865Z,25.21
2022-08-21T16:10:55.608Z,25.14
2022-08-21T16:13:26.472Z,25.15
2022-08-21T16:15:53.407Z,25.05
2022-08-21T16:18:21.652Z,24.87
2022-08-21T16:20:48.236Z,24.62
2022-08-21T16:23:14.843Z,24.49
2022-08-21T16:25:42.232Z,24.73
2022-08-21T16:28:12.192Z,25.14
2022-08-21T16:30:40.455Z,25.77
2022-08-21T16:33:08.526Z,26.65
2022-08-21T16:35:35.202Z,27.43
2022-08-21T16:38:02.232Z,28.09
2022-08-21T16:40:29.633Z,28.36
2022-08-21T16:42:56.712Z,27.64
2022-08-21T16:45:23.635Z,26.48
2022-08-21T16:47:51.250Z,25.54
2022-08-21T16:50:22.364Z,25.10
2022-08-21T16:52:49.118Z,24.63
2022-08-21T16:55:16.724Z,24.45
2022-08-21T16:57:43.537Z,24.18
2022-08-21T17:00:14.137Z,23.90
2022-08-21T17:02:45.227Z,23.72
2022-08-21T17:05:14.038Z,23.74
2022-08-21T17:07:41.744Z,23.65
2022-08-21T17:10:09.505Z,23.61
2022-08-21T17:12:36.434Z,23.57
2022-08-21T17:15:08.326Z,23.57
2022-08-21T17:17:35.303Z,23.45
2022-08-21T17:20:01.960Z,23.35
2022-08-21T17:22:28.623Z,23.25
2022-08-21T17:24:55.501Z,23.20
2022-08-21T17:27:26.761Z,23.16
2022-08-21T17:29:54.641Z,22.96
2022-08-21T17:32:21.717Z,22.85
2022-08-21T17:34:48.356Z,22.83
2022-08-21T17:37:15.312Z,22.74
2022-08-21T17:39:41.905Z,22.65
2022-08-21T17:42:11.730Z,22.38
2022-08-21T17:44:40.344Z,22.15
2022-08-21T17:47:07.554Z,21.99
2022-08-21T17:49:34.832Z,21.86
2022-08-21T17:52:01.419Z,21.75
2022-08-21T17:54:28.370Z,21.75
2022-08-21T17:56:55.846Z,21.54
2022-08-21T17:59:25.820Z,21.32
2022-08-21T18:01:54.399Z,21.18
2022-08-21T18:04:20.944Z,20.98
2022-08-21T18:06:47.558Z,20.80
2022-08-21T18:09:15.239Z,20.61
2022-08-21T18:11:42.505Z,20.44
2022-08-21T18:14:10.544Z,20.28
2022-08-21T18:16:37.832Z,20.15
2022-08-21T18:19:09.486Z,19.97
2022-08-21T18:21:36.374Z,19.87
2022-08-21T18:24:03.732Z,19.79
2022-08-21T18:26:37.224Z,19.68
2022-08-21T18:29:06.340Z,19.57
2022-08-21T18:31:34.158Z,19.52
2022-08-21T18:34:03.343Z,19.45
2022-08-21T18:36:30.039Z,19.38
2022-08-21T18:39:13.654Z,19.35
2022-08-21T18:41:44.744Z,19.25
2022-08-21T18:44:12.925Z,19.18
2022-08-21T18:46:39.573Z,19.13
2022-08-21T18:49:07.331Z,19.04
2022-08-21T18:51:34.192Z,18.97
2022-08-21T18:54:00.787Z,18.94
2022-08-21T18:56:27.875Z,18.95
2022-08-21T18:58:58.264Z,18.95
2022-08-21T19:01:25.724Z,18.89
2022-08-21T19:03:52.798Z,18.80
2022-08-21T19:06:19.357Z,18.77
2022-08-21T19:08:45.853Z,18.73
2022-08-21T19:11:12.509Z,18.64
2022-08-21T19:13:39.295Z,18.71
2022-08-21T19:16:06.096Z,18.66
2022-08-21T19:18:40.158Z,18.57
2022-08-21T19:21:06.971Z,18.48
2022-08-21T19:23:35.169Z,18.41
2022-08-21T19:26:05.822Z,18.38
2022-08-21T19:28:37.653Z,18.32
2022-08-21T19:31:23.663Z,18.29
2022-08-21T19:33:57.713Z,18.24
2022-08-21T19:36:28.791Z,18.18
2022-08-21T19:38:55.331Z,18.15
2022-08-21T19:41:23.135Z,18.18
2022-08-21T19:43:54.608Z,18.16
2022-08-21T19:46:29.205Z,18.10
2022-08-21T19:48:56.896Z,18.03
2022-08-21T19:51:24.504Z,17.96
2022-08-21T19:53:57.023Z,17.93
2022-08-21T19:56:39.481Z,17.88
2022-08-21T19:59:09.366Z,17.82
2022-08-21T20:01:36.307Z,17.79
2022-08-21T20:04:08.624Z,17.77
2022-08-21T20:06:44.933Z,17.76
2022-08-21T20:09:12.287Z,17.78
2022-08-21T20:11:41.259Z,17.80
2022-08-21T20:14:09.739Z,17.78
2022-08-21T20:16:36.514Z,17.72
2022-08-21T20:19:04.728Z,17.72
2022-08-21T20:21:43.322Z,17.67
2022-08-21T20:27:00.159Z,17.57
2022-08-21T20:29:31.482Z,17.60
2022-08-21T20:32:04.833Z,17.62
2022-08-21T20:34:32.350Z,17.52
2022-08-21T20:37:01.161Z,17.46
2022-08-21T20:39:28.292Z,17.41
2022-08-21T20:41:55.492Z,17.33
2022-08-21T20:44:22.715Z,17.24
2022-08-21T20:46:54.036Z,17.14
2022-08-21T20:49:25.922Z,17.09
2022-08-21T20:51:53.236Z,17.09
2022-08-21T20:54:41.938Z,17.11
2022-08-21T20:57:17.639Z,17.04
2022-08-21T20:59:50.029Z,17.00
2022-08-21T21:02:16.487Z,16.97
2022-08-21T21:04:51.544Z,16.97
2022-08-21T21:07:41.800Z,16.93
2022-08-21T21:10:12.862Z,16.86
2022-08-21T21:12:42.985Z,16.81
2022-08-21T21:15:23.446Z,16.84
2022-08-21T21:18:13.046Z,16.81
2022-08-21T21:21:16.597Z,16.73
2022-08-21T21:23:50.515Z,16.65
2022-08-21T21:26:30.817Z,16.61
2022-08-21T21:29:24.877Z,16.62
2022-08-21T21:31:53.501Z,16.54
2022-08-21T21:34:21.928Z,16.50
2022-08-21T21:40:29.452Z,16.46
2022-08-21T21:43:13.929Z,16.41
2022-08-21T21:45:56.875Z,16.34
2022-08-21T21:48:29.195Z,16.32
2022-08-21T21:54:04.842Z,16.22
2022-08-21T21:56:40.391Z,16.19
2022-08-21T21:59:29.817Z,16.14
2022-08-21T22:02:24.207Z,16.15
2022-08-21T22:05:31.425Z,16.19
2022-08-21T22:08:08.034Z,16.14
2022-08-21T22:10:43.774Z,16.13
2022-08-21T22:13:26.645Z,16.16
2022-08-21T22:15:54.670Z,16.14
2022-08-21T22:18:29.852Z,16.06
2022-08-21T22:21:10.164Z,16.05
2022-08-21T22:23:42.214Z,16.00
2022-08-21T22:26:13.410Z,15.91
2022-08-21T22:28:43.718Z,15.87
2022-08-21T22:31:21.183Z,15.82
2022-08-21T22:34:19.442Z,15.77
2022-08-21T22:36:55.349Z,15.72
2022-08-21T22:39:39.027Z,15.75
2022-08-21T22:42:24.808Z,15.66
2022-08-21T22:44:56.257Z,15.67
2022-08-21T22:47:33.691Z,15.67
2022-08-21T22:50:04.716Z,15.59
2022-08-21T22:52:34.612Z,15.53
2022-08-21T22:55:17.517Z,15.49
2022-08-21T22:57:43.947Z,15.49
2022-08-21T23:00:36.464Z,15.51
2022-08-21T23:03:03.680Z,15.46
2022-08-21T23:05:30.519Z,15.49
2022-08-21T23:08:13.903Z,15.54
2022-08-21T23:10:41.321Z,15.68
2022-08-21T23:13:13.302Z,15.72
2022-08-21T23:16:11.448Z,15.74
2022-08-21T23:19:03.649Z,15.66
2022-08-21T23:21:41.810Z,15.54
2022-08-21T23:24:19.631Z,15.46
2022-08-21T23:27:07.912Z,15.40
2022-08-21T23:29:38.715Z,15.35
2022-08-21T23:32:35.674Z,15.29
2022-08-21T23:35:51.804Z,15.25
2022-08-21T23:38:48.159Z,15.17
2022-08-21T23:44:42.469Z,15.09
2022-08-21T23:47:34.023Z,15.04
2022-08-21T23:50:14.094Z,15.00
2022-08-21T23:52:59.469Z,15.11
2022-08-21T23:55:32.382Z,15.06
2022-08-21T23:58:33.167Z,15.15
